createdAt,value
2023-02-15T00:00:16.604Z,101103.75
2023-02-15T00:02:45.203Z,101093.41
2023-02-15T00:05:13.854Z,101051.53
2023-02-15T00:07:42.249Z,101105.72
2023-02-15T00:10:12.211Z,101086.75
2023-02-15T00:12:40.200Z,101061.72
2023-02-15T00:15:08.680Z,101090.78
2023-02-15T00:17:39.636Z,101097.03
2023-02-15T00:20:08.377Z,101097.91
2023-02-15T00:22:39.640Z,101076.41
2023-02-15T00:25:08.335Z,101087.59
2023-02-15T00:27:36.762Z,101047.38
2023-02-15T00:30:05.462Z,101099.78
2023-02-15T00:32:33.690Z,101104.13
2023-02-15T00:35:01.620Z,101097.94
2023-02-15T00:37:29.685Z,101085.16
2023-02-15T00:39:58.362Z,101049.88
2023-02-15T00:42:26.367Z,101078.03
2023-02-15T00:44:54.732Z,101086.50
2023-02-15T00:47:23.001Z,101044.63
2023-02-15T00:49:50.896Z,101072.03
2023-02-15T00:52:19.691Z,101030.94
2023-02-15T00:54:47.776Z,101075.31
2023-02-15T00:57:15.700Z,101083.31
2023-02-15T00:59:43.909Z,101025.91
2023-02-15T01:02:12.141Z,101092.00
2023-02-15T01:04:40.115Z,101081.47
2023-02-15T01:07:08.276Z,101087.75
2023-02-15T01:09:39.092Z,101062.81
2023-02-15T01:12:07.342Z,101083.28
2023-02-15T01:14:35.579Z,101085.91
2023-02-15T01:17:03.756Z,101080.50
2023-02-15T01:19:31.643Z,101077.22
2023-02-15T01:22:01.131Z,101081.63
2023-02-15T01:24:29.316Z,101049.81
2023-02-15T01:26:57.205Z,101081.53
2023-02-15T01:29:25.140Z,101071.75
2023-02-15T01:31:53.926Z,101065.81
2023-02-15T01:34:21.910Z,101066.75
2023-02-15T01:36:49.830Z,101060.69
2023-02-15T01:39:17.965Z,101064.00
2023-02-15T01:41:45.994Z,101048.94
2023-02-15T01:44:53.016Z,101047.84
2023-02-15T01:47:48.849Z,101057.94
2023-02-15T01:50:35.828Z,101056.31
2023-02-15T01:53:55.605Z,101064.91
2023-02-15T01:56:29.938Z,101070.22
2023-02-15T01:59:04.943Z,101052.38
2023-02-15T02:01:34.311Z,101067.66
2023-02-15T02:04:08.176Z,101069.41
2023-02-15T02:06:39.180Z,101028.97
2023-02-15T02:09:08.411Z,101054.78
2023-02-15T02:11:38.515Z,101056.34
2023-02-15T02:14:06.783Z,101064.13
2023-02-15T02:17:17.402Z,101069.31
2023-02-15T02:20:07.063Z,101059.63
2023-02-15T02:23:06.071Z,101056.25
2023-02-15T02:25:59.465Z,101059.09
2023-02-15T02:28:55.584Z,101045.88
2023-02-15T02:31:49.064Z,101041.50
2023-02-15T02:34:54.642Z,100987.47
2023-02-15T02:38:03.892Z,101030.91
2023-02-15T02:41:15.503Z,101027.41
2023-02-15T02:44:14.391Z,101033.66
2023-02-15T02:47:00.897Z,100971.88
2023-02-15T02:49:37.579Z,100977.72
2023-02-15T02:52:29.004Z,100987.22
2023-02-15T02:54:59.460Z,100983.84
2023-02-15T02:57:29.371Z,101016.97
2023-02-15T03:00:03.591Z,101022.41
2023-02-15T03:02:42.887Z,101006.94
2023-02-15T03:05:19.047Z,101025.84
2023-02-15T03:07:52.970Z,101029.28
2023-02-15T03:10:24.975Z,101027.41
2023-02-15T03:12:53.335Z,100990.63
2023-02-15T03:15:51.076Z,101002.41
2023-02-15T03:18:28.171Z,101018.06
2023-02-15T03:20:57.213Z,101038.66
2023-02-15T03:23:29.005Z,101034.34
2023-02-15T03:26:04.537Z,101032.63
2023-02-15T03:28:45.317Z,100986.47
2023-02-15T03:31:16.431Z,101014.72
2023-02-15T03:34:01.859Z,101030.19
2023-02-15T03:36:57.294Z,101028.41
2023-02-15T03:39:48.705Z,101032.63
2023-02-15T03:42:35.906Z,100980.41
2023-02-15T03:45:19.100Z,101032.66
2023-02-15T03:47:50.201Z,101030.03
2023-02-15T03:50:56.236Z,101031.63
2023-02-15T03:53:26.410Z,101013.66
2023-02-15T03:55:57.690Z,101021.38
2023-02-15T03:58:44.711Z,100985.38
2023-02-15T04:01:41.114Z,100986.25
2023-02-15T04:04:18.607Z,101032.63
2023-02-15T04:06:46.874Z,101001.81
2023-02-15T04:09:33.923Z,101036.81
2023-02-15T04:12:01.957Z,101034.13
2023-02-15T04:14:48.893Z,100987.03
2023-02-15T04:17:17.049Z,101030.59
2023-02-15T04:20:03.461Z,100989.66
2023-02-15T04:22:50.243Z,101007.00
2023-02-15T04:25:19.326Z,101041.22
2023-02-15T04:27:51.332Z,101034.25
2023-02-15T04:30:23.470Z,101034.19
2023-02-15T04:32:52.266Z,100983.41
2023-02-15T04:35:20.421Z,101003.06
2023-02-15T04:37:48.474Z,101008.09
2023-02-15T04:40:19.497Z,101027.53
2023-02-15T04:42:51.007Z,101021.47
2023-02-15T04:45:19.318Z,101011.25
2023-02-15T04:47:47.251Z,101017.19
2023-02-15T04:50:15.576Z,100977.91
2023-02-15T04:52:43.535Z,101007.03
2023-02-15T04:55:11.589Z,101034.78
2023-02-15T04:57:39.876Z,100984.88
2023-02-15T05:00:10.048Z,101024.25
2023-02-15T05:02:38.089Z,101011.53
2023-02-15T05:05:06.501Z,101016.88
2023-02-15T05:07:34.973Z,100980.59
2023-02-15T05:10:07.036Z,101025.22
2023-02-15T05:12:35.594Z,101033.09
2023-02-15T05:15:04.473Z,101022.66
2023-02-15T05:17:32.739Z,100992.63
2023-02-15T05:20:01.055Z,101021.59
2023-02-15T05:22:28.946Z,101040.63
2023-02-15T05:25:15.821Z,100989.81
2023-02-15T05:28:04.957Z,101031.00
2023-02-15T05:30:34.120Z,101027.56
2023-02-15T05:33:02.807Z,101030.16
2023-02-15T05:35:30.666Z,101024.81
2023-02-15T05:37:58.717Z,101022.19
2023-02-15T05:40:27.044Z,101026.28
2023-02-15T05:42:55.138Z,101028.91
2023-02-15T05:45:23.503Z,101023.59
2023-02-15T05:47:51.698Z,101027.97
2023-02-15T05:50:19.903Z,101028.84
2023-02-15T05:52:51.266Z,101022.72
2023-02-15T05:55:20.765Z,101021.78
2023-02-15T05:57:49.804Z,100975.69
2023-02-15T06:00:18.698Z,101031.63
2023-02-15T06:02:47.137Z,101029.28
2023-02-15T06:05:15.679Z,100990.66
2023-02-15T06:07:47.361Z,101017.19
2023-02-15T06:10:15.684Z,101041.28
2023-02-15T06:12:45.538Z,101001.00
2023-02-15T06:15:15.204Z,101032.66
2023-02-15T06:17:44.201Z,101027.53
2023-02-15T06:20:13.772Z,101040.47
2023-02-15T06:22:42.052Z,101038.56
2023-02-15T06:25:12.318Z,100989.88
2023-02-15T06:27:43.895Z,101038.34
2023-02-15T06:30:13.456Z,101045.97
2023-02-15T06:32:43.873Z,101015.78
2023-02-15T06:35:13.106Z,101044.78
2023-02-15T06:37:41.363Z,101001.31
2023-02-15T06:40:10.437Z,101021.66
2023-02-15T06:42:38.844Z,101034.63
2023-02-15T06:45:08.587Z,101045.53
2023-02-15T06:47:37.835Z,101052.38
2023-02-15T06:50:08.482Z,100993.88
2023-02-15T06:52:39.676Z,101035.50
2023-02-15T06:55:08.301Z,101036.34
2023-02-15T06:57:36.892Z,101003.84
2023-02-15T07:00:07.101Z,101001.59
2023-02-15T07:02:35.474Z,101031.13
2023-02-15T07:05:06.415Z,100981.53
2023-02-15T07:07:34.382Z,101033.53
2023-02-15T07:10:02.989Z,101033.91
2023-02-15T07:12:43.753Z,101004.16
2023-02-15T07:15:16.239Z,101033.25
2023-02-15T07:17:45.602Z,101027.72
2023-02-15T07:20:21.044Z,100984.19
2023-02-15T07:22:50.266Z,101028.53
2023-02-15T07:25:19.466Z,100994.28
2023-02-15T07:27:47.965Z,101030.06
2023-02-15T07:30:18.139Z,101029.97
2023-02-15T07:33:05.849Z,101029.97
2023-02-15T07:35:35.294Z,101024.69
2023-02-15T07:38:03.614Z,101007.91
2023-02-15T07:40:31.790Z,101022.66
2023-02-15T07:43:00.439Z,101017.56
2023-02-15T07:45:28.526Z,100995.09
2023-02-15T07:47:56.472Z,101026.56
2023-02-15T07:50:24.668Z,101014.06
2023-02-15T07:52:52.868Z,101015.41
2023-02-15T07:55:21.271Z,100996.41
2023-02-15T07:57:51.851Z,101013.34
2023-02-15T08:00:25.825Z,100968.31
2023-02-15T08:03:14.566Z,100975.69
2023-02-15T08:05:45.195Z,101008.31
2023-02-15T08:08:32.136Z,100943.38
2023-02-15T08:11:37.242Z,100951.50
2023-02-15T08:14:26.047Z,100940.47
2023-02-15T08:16:56.917Z,100960.09
2023-02-15T08:19:31.041Z,100953.63
2023-02-15T08:22:04.273Z,101006.38
2023-02-15T08:24:35.933Z,100951.94
2023-02-15T08:27:06.445Z,100990.00
2023-02-15T08:29:37.089Z,100952.34
2023-02-15T08:32:09.599Z,100990.00
2023-02-15T08:34:43.243Z,100992.00
2023-02-15T08:37:11.529Z,100987.81
2023-02-15T08:39:40.386Z,100937.09
2023-02-15T08:42:08.850Z,100976.47
2023-02-15T08:44:37.377Z,100988.31
2023-02-15T08:47:05.374Z,100967.94
2023-02-15T08:49:34.054Z,100984.16
2023-02-15T08:52:02.114Z,100947.16
2023-02-15T08:54:30.955Z,100973.00
2023-02-15T08:56:59.146Z,100997.53
2023-02-15T08:59:28.121Z,100950.53
2023-02-15T09:01:56.667Z,100999.34
2023-02-15T09:04:27.097Z,100989.81
2023-02-15T09:06:56.290Z,100934.88
2023-02-15T09:09:24.357Z,100980.97
2023-02-15T09:11:58.788Z,100934.03
2023-02-15T09:14:28.338Z,100963.69
2023-02-15T09:16:56.936Z,100973.69
2023-02-15T09:19:26.392Z,100966.13
2023-02-15T09:21:54.925Z,100923.03
2023-02-15T09:24:23.516Z,100956.34
2023-02-15T09:26:51.520Z,100912.56
2023-02-15T09:29:21.231Z,100950.56
2023-02-15T09:31:51.858Z,100961.59
2023-02-15T09:34:23.152Z,100956.16
2023-02-15T09:36:52.245Z,100939.09
2023-02-15T09:39:26.160Z,100939.25
2023-02-15T09:41:57.109Z,100945.06
2023-02-15T09:44:40.302Z,100941.16
2023-02-15T09:47:23.580Z,100933.19
2023-02-15T09:50:19.530Z,100931.34
2023-02-15T09:53:37.858Z,100936.63
2023-02-15T09:56:38.720Z,100880.88
2023-02-15T09:59:32.164Z,100920.91
2023-02-15T10:02:12.245Z,100920.16
2023-02-15T10:05:19.865Z,100868.16
2023-02-15T10:08:20.504Z,100914.81
2023-02-15T10:11:33.935Z,100903.91
2023-02-15T10:14:43.505Z,100898.75
2023-02-15T10:17:58.392Z,100889.88
2023-02-15T10:20:40.560Z,100824.34
2023-02-15T10:23:47.732Z,100891.19
2023-02-15T10:26:35.897Z,100877.75
2023-02-15T10:29:33.237Z,100888.03
2023-02-15T10:32:17.602Z,100843.84
2023-02-15T10:35:21.574Z,100895.66
2023-02-15T10:38:07.374Z,100897.13
2023-02-15T10:41:03.777Z,100897.72
2023-02-15T10:44:04.491Z,100879.94
2023-02-15T10:46:55.542Z,100876.31
2023-02-15T10:50:00.122Z,100860.09
2023-02-15T10:52:40.784Z,100850.59
2023-02-15T10:55:19.202Z,100857.47
2023-02-15T10:58:06.895Z,100840.59
2023-02-15T11:00:50.676Z,100838.13
2023-02-15T11:03:47.295Z,100830.31
2023-02-15T11:06:22.763Z,100771.31
2023-02-15T11:09:11.349Z,100798.50
2023-02-15T11:11:46.025Z,100819.47
2023-02-15T11:14:52.466Z,100763.22
2023-02-15T11:17:29.679Z,100814.31
2023-02-15T11:20:23.881Z,100806.53
2023-02-15T11:22:54.782Z,100794.03
2023-02-15T11:25:33.878Z,100789.22
2023-02-15T11:28:11.709Z,100786.88
2023-02-15T11:30:47.741Z,100788.16
2023-02-15T11:33:33.088Z,100799.44
2023-02-15T11:36:22.789Z,100782.78
2023-02-15T11:38:59.348Z,100779.16
2023-02-15T11:41:36.330Z,100788.16
2023-02-15T11:44:36.495Z,100784.59
2023-02-15T11:47:13.868Z,100789.66
2023-02-15T11:49:42.176Z,100753.25
2023-02-15T11:52:16.366Z,100760.84
2023-02-15T11:54:51.616Z,100758.53
2023-02-15T11:58:12.142Z,100748.53
2023-02-15T12:00:46.979Z,100765.06
2023-02-15T12:03:49.643Z,100739.75
2023-02-15T12:06:28.054Z,100738.34
2023-02-15T12:09:37.068Z,100726.38
2023-02-15T12:12:32.933Z,100760.81
2023-02-15T12:15:09.405Z,100721.72
2023-02-15T12:17:51.884Z,100687.66
2023-02-15T12:20:20.226Z,100706.31
2023-02-15T12:23:03.648Z,100651.59
2023-02-15T12:25:56.931Z,100640.25
2023-02-15T12:28:43.139Z,100702.47
2023-02-15T12:31:39.844Z,100675.53
2023-02-15T12:34:24.265Z,100653.19
2023-02-15T12:37:01.382Z,100679.50
2023-02-15T12:39:32.865Z,100638.56
2023-02-15T12:42:17.520Z,100642.38
2023-02-15T12:45:26.149Z,100670.38
2023-02-15T12:48:13.925Z,100645.78
2023-02-15T12:50:54.418Z,100655.94
2023-02-15T12:53:33.389Z,100637.81
2023-02-15T12:56:04.116Z,100622.19
2023-02-15T12:58:37.759Z,100651.13
2023-02-15T13:01:25.718Z,100594.13
2023-02-15T13:04:05.318Z,100631.63
2023-02-15T13:06:37.147Z,100630.13
2023-02-15T13:09:26.930Z,100618.50
2023-02-15T13:11:56.052Z,100564.53
2023-02-15T13:14:33.627Z,100602.97
2023-02-15T13:17:08.474Z,100597.00
2023-02-15T13:19:55.533Z,100542.91
2023-02-15T13:22:43.348Z,100611.56
2023-02-15T13:25:30.570Z,100569.69
2023-02-15T13:28:09.649Z,100514.88
2023-02-15T13:30:47.136Z,100566.50
2023-02-15T13:33:37.030Z,100568.50
2023-02-15T13:36:32.536Z,100561.56
2023-02-15T13:39:24.364Z,100556.13
2023-02-15T13:42:30.090Z,100499.75
2023-02-15T13:45:10.231Z,100534.97
2023-02-15T13:47:53.726Z,100540.75
2023-02-15T13:50:36.041Z,100537.06
2023-02-15T13:53:28.756Z,100529.78
2023-02-15T13:56:25.754Z,100532.31
2023-02-15T13:59:19.918Z,100514.50
2023-02-15T14:02:12.867Z,100517.25
2023-02-15T14:05:18.153Z,100499.81
2023-02-15T14:08:50.370Z,100506.50
2023-02-15T14:11:33.670Z,100511.94
2023-02-15T14:14:32.371Z,100509.69
2023-02-15T14:17:07.915Z,100496.34
2023-02-15T14:20:16.054Z,100497.94
2023-02-15T14:22:56.425Z,100465.31
2023-02-15T14:25:27.833Z,100503.19
2023-02-15T14:28:29.177Z,100500.72
2023-02-15T14:30:58.883Z,100502.97
2023-02-15T14:33:39.580Z,100493.75
2023-02-15T14:36:14.281Z,100476.88
2023-02-15T14:39:36.952Z,100492.97
2023-02-15T14:42:35.676Z,100492.47
2023-02-15T14:45:21.034Z,100492.97
2023-02-15T14:48:39.641Z,100434.53
2023-02-15T14:51:07.850Z,100505.97
2023-02-15T14:53:43.363Z,100506.63
2023-02-15T14:56:11.681Z,100519.44
2023-02-15T14:58:53.474Z,100461.47
2023-02-15T15:01:37.936Z,100475.78
2023-02-15T15:04:25.297Z,100510.13
2023-02-15T15:07:13.091Z,100505.78
2023-02-15T15:09:44.428Z,100509.56
2023-02-15T15:12:29.823Z,100522.81
2023-02-15T15:14:58.259Z,100517.63
2023-02-15T15:17:38.001Z,100518.22
2023-02-15T15:20:15.051Z,100506.63
2023-02-15T15:22:44.461Z,100514.06
2023-02-15T15:25:32.676Z,100520.00
2023-02-15T15:28:00.863Z,100468.63
2023-02-15T15:30:31.955Z,100510.75
2023-02-15T15:33:49.395Z,100519.84
2023-02-15T15:37:15.231Z,100535.69
2023-02-15T15:39:59.805Z,100537.94
2023-02-15T15:43:29.277Z,100539.22
2023-02-15T15:46:32.745Z,100527.66
2023-02-15T15:49:13.930Z,100542.34
2023-02-15T15:51:43.900Z,100488.75
2023-02-15T15:54:24.386Z,100500.84
2023-02-15T15:57:07.673Z,100509.19
2023-02-15T15:59:36.256Z,100532.94
2023-02-15T16:02:12.661Z,100560.75
2023-02-15T16:04:40.704Z,100563.28
2023-02-15T16:07:18.181Z,100578.31
2023-02-15T16:10:04.294Z,100585.19
2023-02-15T16:12:37.136Z,100540.81
2023-02-15T16:15:34.802Z,100578.13
2023-02-15T16:18:04.159Z,100538.13
2023-02-15T16:20:38.043Z,100598.22
2023-02-15T16:23:37.360Z,100595.19
2023-02-15T16:26:52.753Z,100600.78
2023-02-15T16:29:31.887Z,100596.13
2023-02-15T16:32:07.878Z,100604.56
2023-02-15T16:34:36.143Z,100597.03
2023-02-15T16:37:19.226Z,100545.50
2023-02-15T16:39:49.344Z,100558.81
2023-02-15T16:42:20.183Z,100560.66
2023-02-15T16:45:17.515Z,100601.25
2023-02-15T16:47:51.576Z,100598.88
2023-02-15T16:50:27.788Z,100592.78
2023-02-15T16:52:57.406Z,100598.69
2023-02-15T16:55:30.335Z,100586.13
2023-02-15T16:58:05.115Z,100440.19
2023-02-15T17:00:42.350Z,100616.84
2023-02-15T17:03:13.495Z,100622.44
2023-02-15T17:05:50.534Z,100609.72
2023-02-15T17:08:30.335Z,100612.25
2023-02-15T17:11:01.878Z,100611.69
2023-02-15T17:13:30.187Z,100546.72
2023-02-15T17:16:01.330Z,100618.84
2023-02-15T17:18:31.344Z,100566.91
2023-02-15T17:21:18.106Z,100608.63
2023-02-15T17:23:51.527Z,100602.84
2023-02-15T17:26:28.203Z,100616.25
2023-02-15T17:29:11.391Z,100621.84
2023-02-15T17:31:39.991Z,100614.97
2023-02-15T17:35:00.578Z,100617.69
2023-02-15T17:37:38.113Z,100615.28
2023-02-15T17:40:23.052Z,100623.81
2023-02-15T17:42:52.044Z,100573.94
2023-02-15T17:45:22.676Z,100604.91
2023-02-15T17:47:51.810Z,100564.25
2023-02-15T17:50:32.621Z,100572.13
2023-02-15T17:53:02.455Z,100596.53
2023-02-15T17:55:39.350Z,100616.66
2023-02-15T17:58:15.671Z,100572.53
2023-02-15T18:01:13.917Z,100624.97
2023-02-15T18:04:09.245Z,100614.56
2023-02-15T18:07:01.306Z,100614.91
2023-02-15T18:09:50.408Z,100581.00
2023-02-15T18:12:39.969Z,100560.69
2023-02-15T18:15:12.917Z,100614.69
2023-02-15T18:17:46.712Z,100619.03
2023-02-15T18:20:37.557Z,100549.91
2023-02-15T18:23:14.237Z,100612.31
2023-02-15T18:25:43.453Z,100611.50
2023-02-15T18:28:12.162Z,100615.25
2023-02-15T18:30:45.393Z,100612.72
2023-02-15T18:33:36.145Z,100619.75
2023-02-15T18:36:07.712Z,100603.38
2023-02-15T18:38:35.934Z,100596.22
2023-02-15T18:41:05.309Z,100604.84
2023-02-15T18:43:34.113Z,100610.66
2023-02-15T18:46:02.657Z,100611.75
2023-02-15T18:48:31.191Z,100613.56
2023-02-15T18:50:59.770Z,100609.19
2023-02-15T18:53:27.967Z,100555.59
2023-02-15T18:55:56.605Z,100610.34
2023-02-15T18:58:27.625Z,100612.16
2023-02-15T19:00:56.915Z,100602.94
2023-02-15T19:03:25.351Z,100572.38
2023-02-15T19:05:54.081Z,100610.94
2023-02-15T19:08:24.986Z,100612.13
2023-02-15T19:10:54.042Z,100601.75
2023-02-15T19:13:22.699Z,100597.50
2023-02-15T19:15:52.030Z,100547.84
2023-02-15T19:18:20.813Z,100551.72
2023-02-15T19:20:50.268Z,100590.22
2023-02-15T19:23:23.210Z,100579.19
2023-02-15T19:25:54.297Z,100523.94
2023-02-15T19:28:33.703Z,100583.94
2023-02-15T19:31:02.378Z,100566.88
2023-02-15T19:33:30.570Z,100584.13
2023-02-15T19:35:59.747Z,100539.69
2023-02-15T19:38:35.887Z,100575.72
2023-02-15T19:41:16.712Z,100574.78
2023-02-15T19:43:53.846Z,100576.66
2023-02-15T19:46:25.682Z,100539.03
2023-02-15T19:48:54.814Z,100571.38
2023-02-15T19:51:25.771Z,100576.41
2023-02-15T19:53:54.238Z,100571.28
2023-02-15T19:56:24.708Z,100566.19
2023-02-15T19:58:55.276Z,100564.44
2023-02-15T20:01:25.835Z,100541.34
2023-02-15T20:03:55.967Z,100564.50
2023-02-15T20:06:24.303Z,100526.72
2023-02-15T20:08:53.616Z,100558.19
2023-02-15T20:11:23.089Z,100518.19
2023-02-15T20:13:52.681Z,100559.91
2023-02-15T20:16:21.780Z,100565.81
2023-02-15T20:18:51.155Z,100564.00
2023-02-15T20:21:20.539Z,100565.69
2023-02-15T20:23:49.799Z,100538.47
2023-02-15T20:26:19.615Z,100559.84
2023-02-15T20:28:49.674Z,100536.00
2023-02-15T20:31:20.850Z,100537.91
2023-02-15T20:33:50.193Z,100555.28
2023-02-15T20:36:22.336Z,100547.69
2023-02-15T20:38:52.115Z,100506.34
2023-02-15T20:41:39.385Z,100502.84
2023-02-15T20:44:19.661Z,100552.50
2023-02-15T20:46:50.929Z,100533.50
2023-02-15T20:49:20.017Z,100528.25
2023-02-15T20:51:49.283Z,100543.75
2023-02-15T20:54:29.259Z,100540.22
2023-02-15T20:56:58.307Z,100530.94
2023-02-15T20:59:33.232Z,100380.34
2023-02-15T21:02:19.626Z,100546.50
2023-02-15T21:04:48.117Z,100530.19
2023-02-15T21:07:22.084Z,100533.50
2023-02-15T21:09:52.999Z,100533.28
2023-02-15T21:12:23.102Z,100530.75
2023-02-15T21:14:51.676Z,100533.31
2023-02-15T21:17:20.471Z,100528.06
2023-02-15T21:19:49.715Z,100533.78
2023-02-15T21:22:18.277Z,100525.94
2023-02-15T21:24:52.351Z,100525.09
2023-02-15T21:27:22.483Z,100520.84
2023-02-15T21:29:50.959Z,100473.84
2023-02-15T21:32:19.457Z,100511.06
2023-02-15T21:34:47.683Z,100516.16
2023-02-15T21:37:33.504Z,100515.22
2023-02-15T21:40:03.529Z,100396.84
2023-02-15T21:42:50.683Z,100494.50
2023-02-15T21:45:38.440Z,100492.69
2023-02-15T21:48:09.045Z,100438.91
2023-02-15T21:50:56.940Z,100439.91
2023-02-15T21:53:47.246Z,100492.94
2023-02-15T21:56:20.794Z,100491.44
2023-02-15T21:58:49.763Z,100485.91
2023-02-15T22:01:28.464Z,100453.16
2023-02-15T22:03:59.554Z,100470.09
2023-02-15T22:06:27.942Z,100482.84
2023-02-15T22:08:56.448Z,100476.06
2023-02-15T22:11:25.240Z,100499.06
2023-02-15T22:13:53.891Z,100486.75
2023-02-15T22:16:23.864Z,100474.72
2023-02-15T22:18:52.796Z,100472.97
2023-02-15T22:21:21.040Z,100488.34
2023-02-15T22:23:49.246Z,100437.91
2023-02-15T22:26:25.942Z,100424.84
2023-02-15T22:28:54.447Z,100433.13
2023-02-15T22:31:24.156Z,100450.34
2023-02-15T22:33:52.596Z,100478.53
2023-02-15T22:36:26.921Z,100432.44
2023-02-15T22:38:56.267Z,100472.28
2023-02-15T22:41:29.665Z,100475.03
2023-02-15T22:43:58.945Z,100472.50
2023-02-15T22:46:27.912Z,100467.88
2023-02-15T22:48:56.602Z,100466.06
2023-02-15T22:51:25.749Z,100457.66
2023-02-15T22:53:54.149Z,100388.69
2023-02-15T22:56:40.510Z,100453.25
2023-02-15T22:59:19.510Z,100451.50
2023-02-15T23:01:49.567Z,100435.19
2023-02-15T23:04:21.786Z,100405.53
2023-02-15T23:06:50.519Z,100463.72
2023-02-15T23:09:18.989Z,100415.25
2023-02-15T23:11:48.134Z,100454.22
2023-02-15T23:14:36.011Z,100459.28
2023-02-15T23:17:04.173Z,100446.03
2023-02-15T23:19:32.837Z,100402.38
2023-02-15T23:22:00.963Z,100442.69
2023-02-15T23:24:34.603Z,100439.69
2023-02-15T23:27:21.346Z,100396.34
2023-02-15T23:29:50.340Z,100439.34
2023-02-15T23:32:22.296Z,100379.00
2023-02-15T23:34:50.460Z,100444.09
2023-02-15T23:37:18.897Z,100432.00
2023-02-15T23:40:05.937Z,100380.38
2023-02-15T23:42:35.999Z,100430.38
2023-02-15T23:45:06.782Z,100420.84
2023-02-15T23:47:54.940Z,100446.38
2023-02-15T23:50:30.030Z,100436.31
2023-02-15T23:52:58.890Z,100426.25
2023-02-15T23:55:41.079Z,100411.50
2023-02-15T23:58:20.705Z,100367.84
